sensor_id;sensor_type;location;lat;lon;timestamp;P1;durP1;ratioP1;P2;durP2;ratioP2
59294;SDS011;45067;44.654;20.200;2023-09-08T00:00:02;12.15;;;7.97;;
59294;SDS011;45067;44.654;20.200;2023-09-08T00:02:29;12.25;;;7.95;;
59294;SDS011;45067;44.654;20.200;2023-09-08T00:12:39;14.70;;;8.38;;
59294;SDS011;45067;44.654;20.200;2023-09-08T00:15:06;13.90;;;8.40;;
59294;SDS011;45067;44.654;20.200;2023-09-08T00:17:32;13.73;;;8.75;;
59294;SDS011;45067;44.654;20.200;2023-09-08T00:19:58;14.68;;;8.65;;
59294;SDS011;45067;44.654;20.200;2023-09-08T00:22:24;11.63;;;8.10;;
59294;SDS011;45067;44.654;20.200;2023-09-08T00:24:50;15.98;;;8.18;;
59294;SDS011;45067;44.654;20.200;2023-09-08T00:27:16;13.85;;;9.20;;
59294;SDS011;45067;44.654;20.200;2023-09-08T00:29:43;15.10;;;9.05;;
59294;SDS011;45067;44.654;20.200;2023-09-08T00:32:09;13.80;;;9.68;;
59294;SDS011;45067;44.654;20.200;2023-09-08T00:34:35;14.63;;;9.02;;
59294;SDS011;45067;44.654;20.200;2023-09-08T00:37:01;15.73;;;9.60;;
59294;SDS011;45067;44.654;20.200;2023-09-08T00:39:32;16.40;;;9.43;;
59294;SDS011;45067;44.654;20.200;2023-09-08T00:41:58;15.60;;;9.65;;
59294;SDS011;45067;44.654;20.200;2023-09-08T00:44:24;16.58;;;9.18;;
59294;SDS011;45067;44.654;20.200;2023-09-08T00:46:50;16.75;;;9.75;;
59294;SDS011;45067;44.654;20.200;2023-09-08T00:49:16;14.35;;;9.10;;
59294;SDS011;45067;44.654;20.200;2023-09-08T00:51:42;13.02;;;8.57;;
59294;SDS011;45067;44.654;20.200;2023-09-08T00:54:08;13.45;;;9.07;;
59294;SDS011;45067;44.654;20.200;2023-09-08T00:56:35;12.07;;;7.53;;
59294;SDS011;45067;44.654;20.200;2023-09-08T00:59:03;10.20;;;7.88;;
59294;SDS011;45067;44.654;20.200;2023-09-08T01:01:30;25.52;;;8.38;;
59294;SDS011;45067;44.654;20.200;2023-09-08T01:03:57;13.38;;;8.07;;
59294;SDS011;45067;44.654;20.200;2023-09-08T01:06:23;10.52;;;7.63;;
59294;SDS011;45067;44.654;20.200;2023-09-08T01:08:51;12.40;;;8.05;;
59294;SDS011;45067;44.654;20.200;2023-09-08T01:11:19;14.23;;;7.95;;
59294;SDS011;45067;44.654;20.200;2023-09-08T01:13:45;11.00;;;7.60;;
59294;SDS011;45067;44.654;20.200;2023-09-08T01:16:11;14.30;;;8.23;;
59294;SDS011;45067;44.654;20.200;2023-09-08T01:18:37;11.35;;;7.88;;
59294;SDS011;45067;44.654;20.200;2023-09-08T01:23:45;11.95;;;8.40;;
59294;SDS011;45067;44.654;20.200;2023-09-08T01:26:20;12.02;;;7.40;;
59294;SDS011;45067;44.654;20.200;2023-09-08T01:28:49;12.32;;;7.82;;
59294;SDS011;45067;44.654;20.200;2023-09-08T01:31:16;13.63;;;8.07;;
59294;SDS011;45067;44.654;20.200;2023-09-08T01:33:42;18.98;;;7.90;;
59294;SDS011;45067;44.654;20.200;2023-09-08T01:36:09;12.75;;;8.32;;
59294;SDS011;45067;44.654;20.200;2023-09-08T01:38:35;12.30;;;7.78;;
59294;SDS011;45067;44.654;20.200;2023-09-08T01:41:01;11.15;;;8.55;;
59294;SDS011;45067;44.654;20.200;2023-09-08T01:43:27;17.23;;;8.05;;
59294;SDS011;45067;44.654;20.200;2023-09-08T01:45:53;12.20;;;8.00;;
59294;SDS011;45067;44.654;20.200;2023-09-08T01:48:19;13.80;;;8.30;;
59294;SDS011;45067;44.654;20.200;2023-09-08T01:50:46;16.10;;;8.45;;
59294;SDS011;45067;44.654;20.200;2023-09-08T01:53:15;14.98;;;8.38;;
59294;SDS011;45067;44.654;20.200;2023-09-08T01:55:41;12.77;;;8.00;;
59294;SDS011;45067;44.654;20.200;2023-09-08T01:58:07;14.20;;;8.35;;
59294;SDS011;45067;44.654;20.200;2023-09-08T02:00:33;13.52;;;8.20;;
59294;SDS011;45067;44.654;20.200;2023-09-08T02:02:59;15.38;;;9.73;;
59294;SDS011;45067;44.654;20.200;2023-09-08T02:05:25;15.18;;;9.15;;
59294;SDS011;45067;44.654;20.200;2023-09-08T02:07:51;16.67;;;9.63;;
59294;SDS011;45067;44.654;20.200;2023-09-08T02:10:17;16.40;;;9.52;;
59294;SDS011;45067;44.654;20.200;2023-09-08T02:12:45;12.27;;;8.18;;
59294;SDS011;45067;44.654;20.200;2023-09-08T02:15:11;13.95;;;8.18;;
59294;SDS011;45067;44.654;20.200;2023-09-08T02:17:37;12.32;;;7.65;;
59294;SDS011;45067;44.654;20.200;2023-09-08T02:20:04;11.75;;;7.40;;
59294;SDS011;45067;44.654;20.200;2023-09-08T02:22:30;15.90;;;8.60;;
59294;SDS011;45067;44.654;20.200;2023-09-08T02:24:56;13.85;;;8.32;;
59294;SDS011;45067;44.654;20.200;2023-09-08T02:27:23;16.90;;;8.57;;
59294;SDS011;45067;44.654;20.200;2023-09-08T02:29:49;16.98;;;10.57;;
59294;SDS011;45067;44.654;20.200;2023-09-08T02:32:15;21.60;;;11.40;;
59294;SDS011;45067;44.654;20.200;2023-09-08T02:34:41;15.50;;;9.48;;
59294;SDS011;45067;44.654;20.200;2023-09-08T02:37:08;13.45;;;8.65;;
59294;SDS011;45067;44.654;20.200;2023-09-08T02:39:34;16.60;;;9.70;;
59294;SDS011;45067;44.654;20.200;2023-09-08T02:42:00;16.15;;;9.63;;
59294;SDS011;45067;44.654;20.200;2023-09-08T02:44:26;14.95;;;9.02;;
59294;SDS011;45067;44.654;20.200;2023-09-08T02:46:52;16.80;;;9.40;;
59294;SDS011;45067;44.654;20.200;2023-09-08T02:49:18;13.93;;;8.82;;
59294;SDS011;45067;44.654;20.200;2023-09-08T02:51:44;23.42;;;9.60;;
59294;SDS011;45067;44.654;20.200;2023-09-08T02:54:10;18.10;;;10.88;;
59294;SDS011;45067;44.654;20.200;2023-09-08T02:56:37;16.67;;;9.30;;
59294;SDS011;45067;44.654;20.200;2023-09-08T02:59:03;14.98;;;10.68;;
59294;SDS011;45067;44.654;20.200;2023-09-08T03:01:29;16.65;;;10.05;;
59294;SDS011;45067;44.654;20.200;2023-09-08T03:03:55;16.75;;;11.10;;
59294;SDS011;45067;44.654;20.200;2023-09-08T03:06:21;16.13;;;9.82;;
59294;SDS011;45067;44.654;20.200;2023-09-08T03:08:47;18.73;;;9.90;;
59294;SDS011;45067;44.654;20.200;2023-09-08T03:11:13;18.05;;;9.98;;
59294;SDS011;45067;44.654;20.200;2023-09-08T03:13:39;19.05;;;9.77;;
59294;SDS011;45067;44.654;20.200;2023-09-08T03:16:06;17.95;;;11.85;;
59294;SDS011;45067;44.654;20.200;2023-09-08T03:18:33;21.02;;;12.98;;
59294;SDS011;45067;44.654;20.200;2023-09-08T03:24:07;21.50;;;12.63;;
59294;SDS011;45067;44.654;20.200;2023-09-08T03:26:36;16.58;;;11.30;;
59294;SDS011;45067;44.654;20.200;2023-09-08T03:29:02;19.23;;;11.38;;
59294;SDS011;45067;44.654;20.200;2023-09-08T03:31:28;16.83;;;11.52;;
59294;SDS011;45067;44.654;20.200;2023-09-08T03:33:54;18.55;;;12.43;;
59294;SDS011;45067;44.654;20.200;2023-09-08T03:36:36;20.45;;;11.73;;
59294;SDS011;45067;44.654;20.200;2023-09-08T03:39:05;20.65;;;11.45;;
59294;SDS011;45067;44.654;20.200;2023-09-08T03:41:41;19.27;;;11.35;;
59294;SDS011;45067;44.654;20.200;2023-09-08T03:44:13;19.65;;;10.80;;
59294;SDS011;45067;44.654;20.200;2023-09-08T03:46:42;18.52;;;11.13;;
59294;SDS011;45067;44.654;20.200;2023-09-08T03:49:08;18.35;;;11.13;;
59294;SDS011;45067;44.654;20.200;2023-09-08T03:51:47;21.55;;;11.15;;
59294;SDS011;45067;44.654;20.200;2023-09-08T03:54:16;19.00;;;10.43;;
59294;SDS011;45067;44.654;20.200;2023-09-08T03:56:44;16.65;;;10.48;;
59294;SDS011;45067;44.654;20.200;2023-09-08T03:59:10;17.77;;;10.40;;
59294;SDS011;45067;44.654;20.200;2023-09-08T04:01:39;16.90;;;11.32;;
59294;SDS011;45067;44.654;20.200;2023-09-08T04:04:05;15.90;;;10.13;;
59294;SDS011;45067;44.654;20.200;2023-09-08T04:06:32;17.10;;;9.88;;
59294;SDS011;45067;44.654;20.200;2023-09-08T04:09:03;17.77;;;10.07;;
59294;SDS011;45067;44.654;20.200;2023-09-08T04:11:30;22.48;;;10.90;;
59294;SDS011;45067;44.654;20.200;2023-09-08T04:14:06;17.33;;;11.45;;
59294;SDS011;45067;44.654;20.200;2023-09-08T04:16:34;18.88;;;12.18;;
59294;SDS011;45067;44.654;20.200;2023-09-08T04:19:11;20.67;;;12.23;;
59294;SDS011;45067;44.654;20.200;2023-09-08T04:21:37;23.75;;;14.30;;
59294;SDS011;45067;44.654;20.200;2023-09-08T04:24:06;25.25;;;15.45;;
59294;SDS011;45067;44.654;20.200;2023-09-08T04:26:35;30.98;;;19.33;;
59294;SDS011;45067;44.654;20.200;2023-09-08T04:29:03;35.65;;;22.55;;
59294;SDS011;45067;44.654;20.200;2023-09-08T04:31:32;43.65;;;28.33;;
59294;SDS011;45067;44.654;20.200;2023-09-08T04:33:58;48.70;;;29.00;;
59294;SDS011;45067;44.654;20.200;2023-09-08T04:36:24;54.55;;;31.95;;
59294;SDS011;45067;44.654;20.200;2023-09-08T04:38:55;54.90;;;30.33;;
59294;SDS011;45067;44.654;20.200;2023-09-08T04:41:24;55.38;;;29.13;;
59294;SDS011;45067;44.654;20.200;2023-09-08T04:43:50;46.78;;;30.15;;
59294;SDS011;45067;44.654;20.200;2023-09-08T04:46:25;36.67;;;22.58;;
59294;SDS011;45067;44.654;20.200;2023-09-08T04:48:51;37.50;;;21.27;;
59294;SDS011;45067;44.654;20.200;2023-09-08T04:51:17;38.40;;;21.55;;
59294;SDS011;45067;44.654;20.200;2023-09-08T04:53:43;45.25;;;23.88;;
59294;SDS011;45067;44.654;20.200;2023-09-08T04:56:12;31.95;;;19.83;;
59294;SDS011;45067;44.654;20.200;2023-09-08T04:58:39;44.45;;;20.40;;
59294;SDS011;45067;44.654;20.200;2023-09-08T05:01:05;42.95;;;23.65;;
59294;SDS011;45067;44.654;20.200;2023-09-08T05:03:31;39.55;;;22.88;;
59294;SDS011;45067;44.654;20.200;2023-09-08T05:05:57;43.28;;;28.08;;
59294;SDS011;45067;44.654;20.200;2023-09-08T05:08:26;84.45;;;65.18;;
59294;SDS011;45067;44.654;20.200;2023-09-08T05:10:54;107.30;;;79.68;;
59294;SDS011;45067;44.654;20.200;2023-09-08T05:13:22;114.85;;;92.95;;
59294;SDS011;45067;44.654;20.200;2023-09-08T05:15:54;124.28;;;99.72;;
59294;SDS011;45067;44.654;20.200;2023-09-08T05:18:25;130.60;;;106.70;;
59294;SDS011;45067;44.654;20.200;2023-09-08T05:20:52;122.80;;;93.47;;
59294;SDS011;45067;44.654;20.200;2023-09-08T05:23:18;90.10;;;68.28;;
59294;SDS011;45067;44.654;20.200;2023-09-08T05:25:47;68.20;;;52.28;;
59294;SDS011;45067;44.654;20.200;2023-09-08T05:28:13;78.03;;;63.38;;
59294;SDS011;45067;44.654;20.200;2023-09-08T05:30:39;78.75;;;66.13;;
59294;SDS011;45067;44.654;20.200;2023-09-08T05:33:06;84.68;;;73.55;;
59294;SDS011;45067;44.654;20.200;2023-09-08T05:35:32;77.75;;;64.07;;
59294;SDS011;45067;44.654;20.200;2023-09-08T05:38:18;75.85;;;63.55;;
59294;SDS011;45067;44.654;20.200;2023-09-08T05:40:50;76.68;;;59.22;;
59294;SDS011;45067;44.654;20.200;2023-09-08T05:43:16;48.83;;;34.80;;
59294;SDS011;45067;44.654;20.200;2023-09-08T05:45:42;59.10;;;35.13;;
59294;SDS011;45067;44.654;20.200;2023-09-08T05:48:08;51.13;;;35.33;;
59294;SDS011;45067;44.654;20.200;2023-09-08T05:50:36;55.38;;;33.97;;
59294;SDS011;45067;44.654;20.200;2023-09-08T05:53:02;61.08;;;39.55;;
59294;SDS011;45067;44.654;20.200;2023-09-08T05:55:29;70.97;;;44.42;;
59294;SDS011;45067;44.654;20.200;2023-09-08T05:57:55;60.05;;;37.92;;
59294;SDS011;45067;44.654;20.200;2023-09-08T06:00:21;56.53;;;40.05;;
59294;SDS011;45067;44.654;20.200;2023-09-08T06:02:47;58.88;;;33.42;;
59294;SDS011;45067;44.654;20.200;2023-09-08T06:05:13;52.15;;;31.00;;
59294;SDS011;45067;44.654;20.200;2023-09-08T06:07:39;47.35;;;29.00;;
59294;SDS011;45067;44.654;20.200;2023-09-08T06:10:06;49.13;;;28.50;;
59294;SDS011;45067;44.654;20.200;2023-09-08T06:12:32;45.53;;;26.85;;
59294;SDS011;45067;44.654;20.200;2023-09-08T06:14:58;42.75;;;27.52;;
59294;SDS011;45067;44.654;20.200;2023-09-08T06:17:24;44.72;;;27.25;;
59294;SDS011;45067;44.654;20.200;2023-09-08T06:19:50;42.88;;;27.60;;
59294;SDS011;45067;44.654;20.200;2023-09-08T06:22:20;42.92;;;27.13;;
59294;SDS011;45067;44.654;20.200;2023-09-08T06:24:46;42.00;;;28.35;;
59294;SDS011;45067;44.654;20.200;2023-09-08T06:27:13;51.92;;;31.20;;
59294;SDS011;45067;44.654;20.200;2023-09-08T06:29:39;44.60;;;28.42;;
59294;SDS011;45067;44.654;20.200;2023-09-08T06:32:08;37.50;;;26.05;;
59294;SDS011;45067;44.654;20.200;2023-09-08T06:34:34;42.92;;;25.67;;
59294;SDS011;45067;44.654;20.200;2023-09-08T06:37:01;41.38;;;26.90;;
59294;SDS011;45067;44.654;20.200;2023-09-08T06:39:27;38.10;;;26.55;;
59294;SDS011;45067;44.654;20.200;2023-09-08T06:41:53;35.88;;;25.92;;
59294;SDS011;45067;44.654;20.200;2023-09-08T06:44:22;39.85;;;25.67;;
59294;SDS011;45067;44.654;20.200;2023-09-08T06:46:48;37.47;;;26.38;;
59294;SDS011;45067;44.654;20.200;2023-09-08T06:49:14;37.72;;;25.83;;
59294;SDS011;45067;44.654;20.200;2023-09-08T06:51:40;38.50;;;26.45;;
59294;SDS011;45067;44.654;20.200;2023-09-08T06:54:07;32.17;;;23.45;;
59294;SDS011;45067;44.654;20.200;2023-09-08T06:56:33;27.13;;;22.23;;
59294;SDS011;45067;44.654;20.200;2023-09-08T06:58:59;31.20;;;20.40;;
59294;SDS011;45067;44.654;20.200;2023-09-08T07:01:25;33.63;;;21.25;;
59294;SDS011;45067;44.654;20.200;2023-09-08T07:03:51;31.80;;;20.67;;
59294;SDS011;45067;44.654;20.200;2023-09-08T07:06:17;30.40;;;19.98;;
59294;SDS011;45067;44.654;20.200;2023-09-08T07:08:43;29.48;;;19.35;;
59294;SDS011;45067;44.654;20.200;2023-09-08T07:11:09;32.53;;;18.95;;
59294;SDS011;45067;44.654;20.200;2023-09-08T07:13:37;33.53;;;19.70;;
59294;SDS011;45067;44.654;20.200;2023-09-08T07:16:03;26.90;;;19.10;;
59294;SDS011;45067;44.654;20.200;2023-09-08T07:18:30;26.92;;;18.30;;
59294;SDS011;45067;44.654;20.200;2023-09-08T07:20:59;27.65;;;18.45;;
59294;SDS011;45067;44.654;20.200;2023-09-08T07:23:25;24.05;;;17.92;;
59294;SDS011;45067;44.654;20.200;2023-09-08T07:25:52;26.33;;;17.02;;
59294;SDS011;45067;44.654;20.200;2023-09-08T07:28:18;28.20;;;17.85;;
59294;SDS011;45067;44.654;20.200;2023-09-08T07:30:44;25.33;;;17.80;;
59294;SDS011;45067;44.654;20.200;2023-09-08T07:33:10;26.88;;;17.15;;
59294;SDS011;45067;44.654;20.200;2023-09-08T07:35:37;23.20;;;16.25;;
59294;SDS011;45067;44.654;20.200;2023-09-08T07:38:04;23.52;;;15.85;;
59294;SDS011;45067;44.654;20.200;2023-09-08T07:42:56;24.35;;;15.25;;
59294;SDS011;45067;44.654;20.200;2023-09-08T07:45:22;34.63;;;15.02;;
59294;SDS011;45067;44.654;20.200;2023-09-08T07:47:48;20.77;;;14.80;;
59294;SDS011;45067;44.654;20.200;2023-09-08T07:50:24;22.65;;;15.63;;
59294;SDS011;45067;44.654;20.200;2023-09-08T07:52:51;23.90;;;13.60;;
59294;SDS011;45067;44.654;20.200;2023-09-08T07:55:17;20.65;;;14.35;;
59294;SDS011;45067;44.654;20.200;2023-09-08T07:57:44;19.13;;;13.18;;
59294;SDS011;45067;44.654;20.200;2023-09-08T08:00:11;23.75;;;12.90;;
59294;SDS011;45067;44.654;20.200;2023-09-08T08:02:41;20.05;;;12.60;;
59294;SDS011;45067;44.654;20.200;2023-09-08T08:05:07;25.30;;;12.57;;
59294;SDS011;45067;44.654;20.200;2023-09-08T08:07:33;21.25;;;12.02;;
59294;SDS011;45067;44.654;20.200;2023-09-08T08:09:59;19.35;;;12.05;;
59294;SDS011;45067;44.654;20.200;2023-09-08T08:12:25;16.77;;;12.07;;
59294;SDS011;45067;44.654;20.200;2023-09-08T08:14:52;20.67;;;12.27;;
59294;SDS011;45067;44.654;20.200;2023-09-08T08:17:18;17.83;;;10.68;;
59294;SDS011;45067;44.654;20.200;2023-09-08T08:19:45;14.88;;;10.48;;
59294;SDS011;45067;44.654;20.200;2023-09-08T08:22:11;15.20;;;10.43;;
59294;SDS011;45067;44.654;20.200;2023-09-08T08:24:37;15.48;;;9.98;;
59294;SDS011;45067;44.654;20.200;2023-09-08T08:27:03;17.30;;;8.95;;
59294;SDS011;45067;44.654;20.200;2023-09-08T08:29:29;13.00;;;8.30;;
59294;SDS011;45067;44.654;20.200;2023-09-08T08:31:55;15.40;;;8.63;;
59294;SDS011;45067;44.654;20.200;2023-09-08T08:34:21;12.20;;;7.65;;
59294;SDS011;45067;44.654;20.200;2023-09-08T08:36:48;13.07;;;7.40;;
59294;SDS011;45067;44.654;20.200;2023-09-08T08:39:14;14.23;;;8.57;;
59294;SDS011;45067;44.654;20.200;2023-09-08T08:41:40;11.68;;;6.18;;
59294;SDS011;45067;44.654;20.200;2023-09-08T08:44:09;10.50;;;7.13;;
59294;SDS011;45067;44.654;20.200;2023-09-08T08:46:36;10.50;;;5.55;;
59294;SDS011;45067;44.654;20.200;2023-09-08T08:49:02;11.55;;;6.85;;
59294;SDS011;45067;44.654;20.200;2023-09-08T08:51:30;9.85;;;6.03;;
59294;SDS011;45067;44.654;20.200;2023-09-08T08:53:56;11.95;;;6.18;;
59294;SDS011;45067;44.654;20.200;2023-09-08T08:56:23;10.13;;;6.75;;
59294;SDS011;45067;44.654;20.200;2023-09-08T08:58:49;10.00;;;5.57;;
59294;SDS011;45067;44.654;20.200;2023-09-08T09:01:16;10.00;;;6.30;;
59294;SDS011;45067;44.654;20.200;2023-09-08T09:03:44;10.20;;;6.30;;
59294;SDS011;45067;44.654;20.200;2023-09-08T09:06:18;9.90;;;6.40;;
59294;SDS011;45067;44.654;20.200;2023-09-08T09:08:44;10.15;;;6.68;;
59294;SDS011;45067;44.654;20.200;2023-09-08T09:11:12;11.18;;;5.75;;
59294;SDS011;45067;44.654;20.200;2023-09-08T09:13:38;12.52;;;6.78;;
59294;SDS011;45067;44.654;20.200;2023-09-08T09:16:04;7.70;;;6.00;;
59294;SDS011;45067;44.654;20.200;2023-09-08T09:18:41;9.80;;;6.43;;
59294;SDS011;45067;44.654;20.200;2023-09-08T09:21:18;9.98;;;5.25;;
59294;SDS011;45067;44.654;20.200;2023-09-08T09:23:44;12.00;;;5.78;;
59294;SDS011;45067;44.654;20.200;2023-09-08T09:26:10;9.68;;;5.63;;
59294;SDS011;45067;44.654;20.200;2023-09-08T09:28:48;8.40;;;5.63;;
59294;SDS011;45067;44.654;20.200;2023-09-08T09:31:14;12.63;;;5.40;;
59294;SDS011;45067;44.654;20.200;2023-09-08T09:33:40;12.57;;;5.88;;
59294;SDS011;45067;44.654;20.200;2023-09-08T09:36:06;8.90;;;5.05;;
59294;SDS011;45067;44.654;20.200;2023-09-08T09:38:34;10.10;;;5.97;;
59294;SDS011;45067;44.654;20.200;2023-09-08T09:41:18;9.93;;;5.20;;
59294;SDS011;45067;44.654;20.200;2023-09-08T09:43:44;7.55;;;5.30;;
59294;SDS011;45067;44.654;20.200;2023-09-08T09:46:21;11.93;;;5.20;;
59294;SDS011;45067;44.654;20.200;2023-09-08T09:48:51;11.40;;;5.82;;
59294;SDS011;45067;44.654;20.200;2023-09-08T09:51:21;7.28;;;6.22;;
59294;SDS011;45067;44.654;20.200;2023-09-08T09:53:51;13.48;;;6.55;;
59294;SDS011;45067;44.654;20.200;2023-09-08T09:56:17;8.52;;;6.10;;
59294;SDS011;45067;44.654;20.200;2023-09-08T09:58:44;10.05;;;5.90;;
59294;SDS011;45067;44.654;20.200;2023-09-08T10:01:10;11.13;;;5.10;;
59294;SDS011;45067;44.654;20.200;2023-09-08T10:03:40;9.07;;;6.22;;
59294;SDS011;45067;44.654;20.200;2023-09-08T10:06:06;10.07;;;5.93;;
59294;SDS011;45067;44.654;20.200;2023-09-08T10:08:35;9.75;;;5.13;;
59294;SDS011;45067;44.654;20.200;2023-09-08T10:11:11;10.27;;;5.90;;
59294;SDS011;45067;44.654;20.200;2023-09-08T10:13:39;8.38;;;5.45;;
59294;SDS011;45067;44.654;20.200;2023-09-08T10:16:08;9.17;;;5.83;;
59294;SDS011;45067;44.654;20.200;2023-09-08T10:18:34;11.25;;;6.60;;
59294;SDS011;45067;44.654;20.200;2023-09-08T10:21:03;9.85;;;5.75;;
59294;SDS011;45067;44.654;20.200;2023-09-08T10:26:00;7.63;;;6.10;;
59294;SDS011;45067;44.654;20.200;2023-09-08T10:28:29;10.35;;;6.07;;
59294;SDS011;45067;44.654;20.200;2023-09-08T10:30:56;8.75;;;5.80;;
59294;SDS011;45067;44.654;20.200;2023-09-08T10:33:22;14.00;;;5.90;;
59294;SDS011;45067;44.654;20.200;2023-09-08T10:35:49;9.52;;;5.82;;
59294;SDS011;45067;44.654;20.200;2023-09-08T10:38:25;8.10;;;6.00;;
59294;SDS011;45067;44.654;20.200;2023-09-08T10:40:52;8.52;;;6.00;;
59294;SDS011;45067;44.654;20.200;2023-09-08T10:43:18;9.00;;;5.38;;
59294;SDS011;45067;44.654;20.200;2023-09-08T10:45:47;8.32;;;5.95;;
59294;SDS011;45067;44.654;20.200;2023-09-08T10:48:14;7.17;;;5.20;;
59294;SDS011;45067;44.654;20.200;2023-09-08T10:50:44;6.82;;;4.88;;
59294;SDS011;45067;44.654;20.200;2023-09-08T10:53:21;8.50;;;5.47;;
59294;SDS011;45067;44.654;20.200;2023-09-08T10:55:47;13.40;;;6.95;;
59294;SDS011;45067;44.654;20.200;2023-09-08T10:58:32;7.13;;;5.40;;
59294;SDS011;45067;44.654;20.200;2023-09-08T11:01:03;10.00;;;5.13;;
59294;SDS011;45067;44.654;20.200;2023-09-08T11:06:05;8.93;;;5.07;;
59294;SDS011;45067;44.654;20.200;2023-09-08T11:08:39;8.90;;;5.30;;
59294;SDS011;45067;44.654;20.200;2023-09-08T11:11:10;9.18;;;5.63;;
59294;SDS011;45067;44.654;20.200;2023-09-08T11:13:37;8.73;;;4.93;;
59294;SDS011;45067;44.654;20.200;2023-09-08T11:16:21;11.18;;;5.07;;
59294;SDS011;45067;44.654;20.200;2023-09-08T11:18:54;7.93;;;4.88;;
59294;SDS011;45067;44.654;20.200;2023-09-08T11:21:20;8.85;;;4.80;;
59294;SDS011;45067;44.654;20.200;2023-09-08T11:23:46;10.95;;;5.20;;
59294;SDS011;45067;44.654;20.200;2023-09-08T11:26:13;8.30;;;4.93;;
59294;SDS011;45067;44.654;20.200;2023-09-08T11:28:40;6.63;;;5.07;;
59294;SDS011;45067;44.654;20.200;2023-09-08T11:31:07;7.35;;;5.30;;
59294;SDS011;45067;44.654;20.200;2023-09-08T11:33:34;7.68;;;5.07;;
59294;SDS011;45067;44.654;20.200;2023-09-08T11:36:10;9.43;;;5.20;;
59294;SDS011;45067;44.654;20.200;2023-09-08T11:38:38;7.82;;;5.50;;
59294;SDS011;45067;44.654;20.200;2023-09-08T11:41:06;8.40;;;4.80;;
59294;SDS011;45067;44.654;20.200;2023-09-08T11:43:32;8.07;;;5.22;;
59294;SDS011;45067;44.654;20.200;2023-09-08T11:45:59;9.25;;;5.18;;
59294;SDS011;45067;44.654;20.200;2023-09-08T11:48:25;8.52;;;5.00;;
59294;SDS011;45067;44.654;20.200;2023-09-08T11:50:55;7.22;;;5.03;;
59294;SDS011;45067;44.654;20.200;2023-09-08T11:53:21;9.07;;;5.35;;
59294;SDS011;45067;44.654;20.200;2023-09-08T11:55:48;7.13;;;5.07;;
59294;SDS011;45067;44.654;20.200;2023-09-08T11:58:14;10.82;;;5.50;;
59294;SDS011;45067;44.654;20.200;2023-09-08T12:00:41;7.88;;;4.95;;
59294;SDS011;45067;44.654;20.200;2023-09-08T12:03:13;8.40;;;5.35;;
59294;SDS011;45067;44.654;20.200;2023-09-08T12:05:40;9.13;;;4.70;;
59294;SDS011;45067;44.654;20.200;2023-09-08T12:08:07;7.68;;;5.10;;
59294;SDS011;45067;44.654;20.200;2023-09-08T12:10:40;7.80;;;4.70;;
59294;SDS011;45067;44.654;20.200;2023-09-08T12:13:07;7.10;;;5.00;;
59294;SDS011;45067;44.654;20.200;2023-09-08T12:15:37;8.25;;;4.80;;
59294;SDS011;45067;44.654;20.200;2023-09-08T12:18:04;9.57;;;5.20;;
59294;SDS011;45067;44.654;20.200;2023-09-08T12:20:45;9.13;;;5.05;;
59294;SDS011;45067;44.654;20.200;2023-09-08T12:23:18;6.07;;;4.68;;
59294;SDS011;45067;44.654;20.200;2023-09-08T12:25:45;5.80;;;4.65;;
59294;SDS011;45067;44.654;20.200;2023-09-08T12:28:17;5.80;;;4.65;;
59294;SDS011;45067;44.654;20.200;2023-09-08T12:30:43;7.70;;;4.97;;
59294;SDS011;45067;44.654;20.200;2023-09-08T12:33:09;5.68;;;4.85;;
59294;SDS011;45067;44.654;20.200;2023-09-08T12:35:36;6.47;;;4.25;;
59294;SDS011;45067;44.654;20.200;2023-09-08T12:38:03;11.00;;;4.63;;
59294;SDS011;45067;44.654;20.200;2023-09-08T12:40:30;7.80;;;6.13;;
59294;SDS011;45067;44.654;20.200;2023-09-08T12:42:57;9.50;;;5.70;;
59294;SDS011;45067;44.654;20.200;2023-09-08T12:45:25;12.10;;;9.00;;
59294;SDS011;45067;44.654;20.200;2023-09-08T12:47:51;9.27;;;5.97;;
59294;SDS011;45067;44.654;20.200;2023-09-08T12:50:19;8.80;;;5.20;;
59294;SDS011;45067;44.654;20.200;2023-09-08T12:52:45;8.30;;;5.97;;
59294;SDS011;45067;44.654;20.200;2023-09-08T12:55:12;8.95;;;6.40;;
59294;SDS011;45067;44.654;20.200;2023-09-08T12:57:38;10.40;;;6.03;;
59294;SDS011;45067;44.654;20.200;2023-09-08T13:00:04;13.82;;;6.18;;
59294;SDS011;45067;44.654;20.200;2023-09-08T13:02:31;8.02;;;5.30;;
59294;SDS011;45067;44.654;20.200;2023-09-08T13:04:57;7.95;;;5.18;;
59294;SDS011;45067;44.654;20.200;2023-09-08T13:07:23;7.10;;;5.22;;
59294;SDS011;45067;44.654;20.200;2023-09-08T13:09:49;7.13;;;4.82;;
59294;SDS011;45067;44.654;20.200;2023-09-08T13:12:19;11.65;;;6.60;;
59294;SDS011;45067;44.654;20.200;2023-09-08T13:14:45;8.15;;;5.60;;
59294;SDS011;45067;44.654;20.200;2023-09-08T13:17:11;7.88;;;5.65;;
59294;SDS011;45067;44.654;20.200;2023-09-08T13:19:38;11.18;;;5.57;;
59294;SDS011;45067;44.654;20.200;2023-09-08T13:22:04;8.55;;;5.18;;
59294;SDS011;45067;44.654;20.200;2023-09-08T13:24:30;8.23;;;5.90;;
59294;SDS011;45067;44.654;20.200;2023-09-08T13:26:57;7.93;;;6.90;;
59294;SDS011;45067;44.654;20.200;2023-09-08T13:29:23;7.82;;;6.72;;
59294;SDS011;45067;44.654;20.200;2023-09-08T13:31:49;11.07;;;6.47;;
59294;SDS011;45067;44.654;20.200;2023-09-08T13:34:15;9.15;;;5.50;;
59294;SDS011;45067;44.654;20.200;2023-09-08T13:36:41;9.15;;;5.38;;
59294;SDS011;45067;44.654;20.200;2023-09-08T13:39:07;5.80;;;4.70;;
59294;SDS011;45067;44.654;20.200;2023-09-08T13:41:52;8.98;;;5.90;;
59294;SDS011;45067;44.654;20.200;2023-09-08T13:44:19;6.53;;;4.60;;
59294;SDS011;45067;44.654;20.200;2023-09-08T13:46:49;12.55;;;9.20;;
59294;SDS011;45067;44.654;20.200;2023-09-08T13:49:16;11.10;;;6.20;;
59294;SDS011;45067;44.654;20.200;2023-09-08T13:51:42;10.93;;;7.60;;
59294;SDS011;45067;44.654;20.200;2023-09-08T13:54:09;12.73;;;6.90;;
59294;SDS011;45067;44.654;20.200;2023-09-08T13:56:38;11.93;;;8.35;;
59294;SDS011;45067;44.654;20.200;2023-09-08T13:59:05;8.32;;;5.75;;
59294;SDS011;45067;44.654;20.200;2023-09-08T14:01:32;7.70;;;5.68;;
59294;SDS011;45067;44.654;20.200;2023-09-08T14:04:01;5.82;;;5.18;;
59294;SDS011;45067;44.654;20.200;2023-09-08T14:06:27;8.63;;;5.53;;
59294;SDS011;45067;44.654;20.200;2023-09-08T14:08:54;6.57;;;4.90;;
59294;SDS011;45067;44.654;20.200;2023-09-08T14:11:21;7.70;;;5.60;;
59294;SDS011;45067;44.654;20.200;2023-09-08T14:13:47;6.13;;;4.70;;
59294;SDS011;45067;44.654;20.200;2023-09-08T14:16:13;8.43;;;4.68;;
59294;SDS011;45067;44.654;20.200;2023-09-08T14:18:39;7.97;;;5.50;;
59294;SDS011;45067;44.654;20.200;2023-09-08T14:21:06;11.20;;;5.30;;
59294;SDS011;45067;44.654;20.200;2023-09-08T14:23:35;11.20;;;5.60;;
59294;SDS011;45067;44.654;20.200;2023-09-08T14:26:03;8.88;;;5.10;;
59294;SDS011;45067;44.654;20.200;2023-09-08T14:28:49;7.63;;;4.78;;
59294;SDS011;45067;44.654;20.200;2023-09-08T14:31:15;9.20;;;5.70;;
59294;SDS011;45067;44.654;20.200;2023-09-08T14:33:41;6.90;;;5.28;;
59294;SDS011;45067;44.654;20.200;2023-09-08T14:36:08;8.43;;;5.13;;
59294;SDS011;45067;44.654;20.200;2023-09-08T14:38:34;8.32;;;5.60;;
59294;SDS011;45067;44.654;20.200;2023-09-08T14:41:01;8.98;;;7.25;;
59294;SDS011;45067;44.654;20.200;2023-09-08T14:43:27;11.13;;;6.25;;